createdAt,value
2017-11-14T00:00:12.438Z,14.33
2017-11-14T00:02:39.895Z,12.87
2017-11-14T00:05:08.326Z,13.00
2017-11-14T00:07:35.762Z,14.57
2017-11-14T00:10:03.998Z,14.73
2017-11-14T00:12:31.458Z,13.00
2017-11-14T00:14:58.913Z,12.43
2017-11-14T00:17:26.370Z,13.23
2017-11-14T00:19:53.827Z,16.93
2017-11-14T00:22:21.330Z,15.27
2017-11-14T00:24:48.839Z,15.97
2017-11-14T00:27:16.398Z,14.37
2017-11-14T00:29:43.959Z,15.53
2017-11-14T00:32:11.454Z,14.03
2017-11-14T00:34:38.979Z,13.90
2017-11-14T00:37:06.526Z,13.37
2017-11-14T00:39:33.989Z,14.13
2017-11-14T00:42:01.544Z,15.43
2017-11-14T00:44:29.000Z,15.83
2017-11-14T00:46:56.554Z,15.27
2017-11-14T00:49:24.119Z,15.43
2017-11-14T00:51:51.684Z,15.20
2017-11-14T00:54:19.233Z,14.27
2017-11-14T00:56:46.703Z,13.97
2017-11-14T00:59:14.154Z,15.20
2017-11-14T01:01:41.605Z,14.30
2017-11-14T01:04:09.051Z,15.10
2017-11-14T01:06:36.507Z,17.93
2017-11-14T01:09:03.958Z,17.43
2017-11-14T01:11:31.518Z,15.50
2017-11-14T01:13:58.973Z,19.70
2017-11-14T01:16:26.525Z,16.83
2017-11-14T01:18:54.093Z,14.97
2017-11-14T01:21:21.661Z,15.30
2017-11-14T01:23:49.121Z,16.97
2017-11-14T01:26:16.653Z,15.90
2017-11-14T01:28:44.137Z,16.57
2017-11-14T01:31:11.635Z,14.07
2017-11-14T01:33:39.100Z,13.60
2017-11-14T01:36:06.550Z,16.30
2017-11-14T01:38:34.007Z,14.57
2017-11-14T01:41:01.494Z,15.03
2017-11-14T01:43:28.949Z,15.40
2017-11-14T01:45:56.394Z,14.27
2017-11-14T01:48:23.851Z,14.63
2017-11-14T01:50:51.298Z,13.47
2017-11-14T01:53:18.754Z,13.43
2017-11-14T01:55:46.201Z,13.60
2017-11-14T01:58:13.702Z,15.23
2017-11-14T02:00:46.905Z,15.43
2017-11-14T02:03:15.130Z,14.20
2017-11-14T02:05:42.577Z,14.50
2017-11-14T02:08:10.174Z,16.07
2017-11-14T02:10:37.719Z,13.93
2017-11-14T02:13:05.269Z,14.40
2017-11-14T02:15:33.848Z,14.50
2017-11-14T02:18:01.291Z,14.10
2017-11-14T02:20:28.766Z,14.50
2017-11-14T02:22:56.214Z,14.57
2017-11-14T02:25:23.670Z,15.60
2017-11-14T02:27:53.034Z,15.93
2017-11-14T02:30:20.481Z,15.20
2017-11-14T02:32:47.961Z,14.57
2017-11-14T02:35:15.418Z,15.03
2017-11-14T02:37:42.872Z,18.67
2017-11-14T02:40:10.350Z,15.67
2017-11-14T02:42:37.815Z,14.67
2017-11-14T02:45:05.271Z,13.60
2017-11-14T02:47:32.823Z,14.07
2017-11-14T02:50:00.279Z,17.00
2017-11-14T02:52:27.834Z,14.90
2017-11-14T02:54:55.297Z,14.53
2017-11-14T02:57:22.746Z,13.57
2017-11-14T02:59:50.310Z,15.80
2017-11-14T03:02:17.762Z,15.07
2017-11-14T03:04:45.245Z,14.30
2017-11-14T03:07:13.491Z,14.17
2017-11-14T03:09:41.075Z,14.00
2017-11-14T03:12:09.295Z,13.77
2017-11-14T03:14:36.749Z,13.77
2017-11-14T03:17:04.212Z,15.60
2017-11-14T03:19:31.686Z,15.50
2017-11-14T03:21:59.245Z,14.40
2017-11-14T03:24:26.694Z,14.80
2017-11-14T03:26:54.260Z,13.60
2017-11-14T03:29:21.710Z,15.40
2017-11-14T03:31:49.278Z,14.60
2017-11-14T03:34:16.713Z,16.97
2017-11-14T03:36:44.183Z,15.17
2017-11-14T03:39:11.750Z,17.07
2017-11-14T03:41:39.303Z,15.30
2017-11-14T03:44:06.750Z,15.23
2017-11-14T03:46:34.205Z,15.83
2017-11-14T03:49:01.656Z,16.20
2017-11-14T03:51:29.127Z,15.87
2017-11-14T03:53:56.583Z,19.30
2017-11-14T03:56:24.134Z,17.10
2017-11-14T03:58:51.690Z,16.30
2017-11-14T04:01:19.157Z,17.90
2017-11-14T04:03:46.615Z,14.30
2017-11-14T04:06:14.168Z,15.97
2017-11-14T04:08:42.418Z,14.17
2017-11-14T04:11:09.866Z,15.73
2017-11-14T04:13:37.333Z,15.77
2017-11-14T04:16:04.774Z,17.20
2017-11-14T04:18:32.240Z,14.63
2017-11-14T04:20:59.698Z,13.77
2017-11-14T04:23:27.150Z,15.30
2017-11-14T04:25:54.602Z,12.40
2017-11-14T04:28:22.062Z,14.83
2017-11-14T04:30:49.629Z,14.80
2017-11-14T04:33:17.194Z,13.20
2017-11-14T04:35:44.657Z,13.17
2017-11-14T04:38:22.385Z,14.90
2017-11-14T04:40:50.595Z,14.17
2017-11-14T04:43:18.086Z,14.17
2017-11-14T04:45:45.529Z,13.47
2017-11-14T04:48:12.986Z,13.50
2017-11-14T04:50:40.541Z,15.63
2017-11-14T04:53:08.002Z,12.83
2017-11-14T04:55:35.456Z,14.37
2017-11-14T04:58:03.022Z,11.07
2017-11-14T05:00:30.577Z,11.63
2017-11-14T05:02:58.021Z,11.87
2017-11-14T05:05:25.482Z,12.97
2017-11-14T05:07:52.942Z,12.30
2017-11-14T05:10:20.391Z,13.07
2017-11-14T05:12:47.955Z,11.40
2017-11-14T05:15:15.411Z,12.97
2017-11-14T05:17:42.870Z,11.87
2017-11-14T05:20:10.328Z,11.60
2017-11-14T05:22:38.593Z,12.97
2017-11-14T05:25:06.150Z,10.77
2017-11-14T05:27:33.601Z,11.43
2017-11-14T05:30:01.170Z,15.70
2017-11-14T05:32:28.627Z,12.47
2017-11-14T05:34:56.083Z,13.63
2017-11-14T05:37:23.634Z,12.63
2017-11-14T05:39:51.099Z,26.17
2017-11-14T05:42:18.550Z,24.53
2017-11-14T05:44:46.001Z,10.37
2017-11-14T05:47:13.454Z,11.67
2017-11-14T05:49:40.907Z,11.47
2017-11-14T05:52:08.351Z,12.07
2017-11-14T05:54:35.926Z,11.43
2017-11-14T05:57:03.382Z,11.73
2017-11-14T05:59:30.834Z,15.23
2017-11-14T06:01:58.283Z,11.77
2017-11-14T06:04:25.738Z,11.10
2017-11-14T06:06:53.182Z,9.83
2017-11-14T06:09:20.637Z,10.57
2017-11-14T06:11:48.082Z,13.50
2017-11-14T06:14:15.671Z,11.60
2017-11-14T06:16:43.119Z,12.47
2017-11-14T06:19:10.566Z,11.50
2017-11-14T06:21:38.030Z,11.63
2017-11-14T06:24:05.478Z,12.47
2017-11-14T06:26:33.025Z,12.77
2017-11-14T06:29:00.454Z,14.37
2017-11-14T06:31:27.906Z,12.43
2017-11-14T06:33:55.470Z,15.13
2017-11-14T06:36:22.922Z,11.27
2017-11-14T06:38:50.362Z,13.03
2017-11-14T06:41:18.582Z,13.23
2017-11-14T06:43:46.034Z,15.53
2017-11-14T06:46:13.526Z,17.43
2017-11-14T06:48:40.973Z,14.73
2017-11-14T06:51:08.441Z,13.07
2017-11-14T06:53:35.897Z,12.30
2017-11-14T06:56:03.440Z,15.20
2017-11-14T06:58:31.605Z,11.77
2017-11-14T07:00:59.170Z,12.10
2017-11-14T07:03:26.630Z,12.40
2017-11-14T07:05:54.075Z,12.27
2017-11-14T07:08:21.539Z,10.73
2017-11-14T07:10:48.983Z,10.90
2017-11-14T07:13:16.553Z,12.90
2017-11-14T07:15:43.999Z,11.00
2017-11-14T07:18:11.571Z,11.73
2017-11-14T07:20:39.027Z,11.07
2017-11-14T07:23:06.597Z,11.10
2017-11-14T07:25:34.814Z,11.73
2017-11-14T07:28:02.277Z,11.47
2017-11-14T07:30:29.763Z,12.53
2017-11-14T07:32:57.330Z,11.77
2017-11-14T07:35:24.778Z,12.23
2017-11-14T07:37:52.402Z,11.67
2017-11-14T07:40:19.834Z,12.53
2017-11-14T07:42:47.342Z,10.50
2017-11-14T07:45:14.818Z,12.10
2017-11-14T07:47:42.271Z,11.77
2017-11-14T07:50:09.707Z,12.37
2017-11-14T07:52:37.571Z,12.27
2017-11-14T07:55:05.024Z,12.93
2017-11-14T07:57:32.474Z,12.30
2017-11-14T07:59:59.931Z,11.60
2017-11-14T08:02:27.379Z,12.13
2017-11-14T08:04:54.859Z,11.03
2017-11-14T08:07:22.456Z,13.10
2017-11-14T08:09:50.715Z,11.23
2017-11-14T08:12:18.158Z,12.77
2017-11-14T08:14:45.680Z,14.10
2017-11-14T08:17:13.172Z,13.50
2017-11-14T08:19:40.748Z,13.13
2017-11-14T08:22:08.963Z,13.63
2017-11-14T08:24:36.410Z,12.83
2017-11-14T08:27:03.857Z,12.23
2017-11-14T08:29:31.305Z,12.47
2017-11-14T08:31:58.814Z,12.90
2017-11-14T08:34:26.307Z,13.40
2017-11-14T08:36:54.520Z,11.10
2017-11-14T08:39:22.250Z,12.97
2017-11-14T08:41:49.690Z,12.80
2017-11-14T08:44:17.999Z,13.03
2017-11-14T08:46:45.438Z,13.83
2017-11-14T08:49:12.938Z,13.20
2017-11-14T08:51:40.387Z,14.30
2017-11-14T08:54:07.834Z,14.70
2017-11-14T08:56:35.301Z,14.73
2017-11-14T08:59:02.771Z,13.87
2017-11-14T09:01:30.254Z,13.93
2017-11-14T09:03:58.487Z,14.63
2017-11-14T09:06:25.948Z,14.00
2017-11-14T09:08:53.402Z,14.87
2017-11-14T09:11:20.878Z,13.03
2017-11-14T09:13:48.414Z,13.27
2017-11-14T09:16:15.976Z,13.83
2017-11-14T09:18:43.422Z,14.00
2017-11-14T09:21:11.039Z,14.87
2017-11-14T09:23:38.479Z,13.20
2017-11-14T09:26:06.698Z,11.70
2017-11-14T09:28:34.170Z,11.73
2017-11-14T09:31:01.726Z,10.00
2017-11-14T09:33:29.170Z,11.20
2017-11-14T09:35:56.625Z,10.87
2017-11-14T09:38:24.079Z,11.17
2017-11-14T09:40:51.562Z,9.13
2017-11-14T09:43:19.106Z,7.83
2017-11-14T09:45:46.551Z,8.47
2017-11-14T09:48:14.015Z,7.20
2017-11-14T09:50:41.470Z,8.20
2017-11-14T09:53:08.927Z,8.33
2017-11-14T09:55:36.367Z,8.30
2017-11-14T09:58:03.838Z,9.53
2017-11-14T10:00:31.278Z,10.40
2017-11-14T10:02:58.723Z,7.57
2017-11-14T10:05:26.162Z,7.23
2017-11-14T10:07:53.670Z,7.27
2017-11-14T10:10:21.113Z,8.30
2017-11-14T10:12:48.570Z,5.30
2017-11-14T10:15:16.022Z,4.93
2017-11-14T10:17:43.468Z,5.10
2017-11-14T10:20:10.953Z,6.03
2017-11-14T10:22:38.404Z,6.47
2017-11-14T10:25:05.950Z,6.03
2017-11-14T10:27:33.450Z,5.60
2017-11-14T10:30:01.670Z,5.63
2017-11-14T10:32:29.115Z,5.00
2017-11-14T10:34:56.553Z,4.70
2017-11-14T10:37:24.047Z,5.27
2017-11-14T10:39:51.507Z,5.40
2017-11-14T10:42:19.135Z,5.37
2017-11-14T10:44:46.593Z,5.37
2017-11-14T10:47:14.022Z,6.03
2017-11-14T10:49:41.474Z,6.60
2017-11-14T10:52:09.712Z,6.60
2017-11-14T10:54:37.162Z,6.93
2017-11-14T10:57:04.607Z,8.80
2017-11-14T10:59:32.085Z,12.50
2017-11-14T11:01:59.521Z,16.20
2017-11-14T11:04:26.978Z,16.20
2017-11-14T11:06:54.427Z,15.77
2017-11-14T11:09:21.914Z,16.80
2017-11-14T11:11:49.450Z,16.23
2017-11-14T11:14:17.018Z,15.70
2017-11-14T11:16:44.463Z,16.03
2017-11-14T11:19:12.001Z,15.67
2017-11-14T11:21:40.267Z,15.97
2017-11-14T11:24:07.750Z,15.80
2017-11-14T11:26:35.196Z,15.40
2017-11-14T11:29:02.771Z,15.80
2017-11-14T11:31:30.210Z,17.60
2017-11-14T11:33:57.650Z,17.53
2017-11-14T11:36:25.125Z,17.30
2017-11-14T11:38:52.605Z,16.23
2017-11-14T11:41:20.051Z,19.37
2017-11-14T11:43:47.489Z,19.13
2017-11-14T11:46:15.054Z,20.10
2017-11-14T11:48:42.506Z,20.93
2017-11-14T11:51:09.963Z,21.60
2017-11-14T11:53:37.411Z,19.73
2017-11-14T11:56:04.949Z,20.07
2017-11-14T11:58:32.966Z,20.53
2017-11-14T12:01:00.423Z,19.87
2017-11-14T12:03:27.866Z,22.87
2017-11-14T12:05:55.314Z,20.20
2017-11-14T12:08:22.763Z,20.53
2017-11-14T12:10:50.210Z,19.40
2017-11-14T12:13:17.683Z,18.23
2017-11-14T12:15:45.129Z,17.47
2017-11-14T12:18:12.586Z,18.17
2017-11-14T12:20:40.113Z,20.07
2017-11-14T12:23:07.638Z,17.17
2017-11-14T12:25:35.159Z,18.20
2017-11-14T12:28:02.632Z,22.27
2017-11-14T12:30:30.075Z,19.53
2017-11-14T12:32:57.526Z,18.73
2017-11-14T12:35:24.972Z,17.87
2017-11-14T12:37:52.418Z,20.07
2017-11-14T12:40:19.860Z,18.40
2017-11-14T12:42:47.370Z,17.63
2017-11-14T12:45:14.826Z,16.53
2017-11-14T12:47:42.374Z,16.57
2017-11-14T12:50:09.818Z,16.17
2017-11-14T12:52:37.274Z,19.10
2017-11-14T12:55:04.721Z,18.90
2017-11-14T12:57:32.175Z,15.90
2017-11-14T12:59:59.646Z,21.00
2017-11-14T13:02:27.918Z,15.90
2017-11-14T13:04:55.469Z,15.33
2017-11-14T13:07:23.111Z,14.17
2017-11-14T13:09:51.319Z,13.60
2017-11-14T13:12:18.894Z,15.23
2017-11-14T13:14:46.341Z,17.60
2017-11-14T13:17:13.879Z,15.77
2017-11-14T13:19:41.317Z,18.23
2017-11-14T13:22:08.795Z,15.73
2017-11-14T13:24:36.242Z,15.77
2017-11-14T13:27:03.807Z,16.67
2017-11-14T13:29:31.259Z,17.37
2017-11-14T13:31:58.715Z,15.23
2017-11-14T13:34:26.163Z,14.60
2017-11-14T13:36:53.614Z,13.80
2017-11-14T13:39:21.062Z,16.50
2017-11-14T13:41:48.506Z,16.83
2017-11-14T13:44:15.967Z,14.13
2017-11-14T13:46:43.456Z,16.20
2017-11-14T13:49:10.966Z,14.93
2017-11-14T13:51:38.407Z,14.33
2017-11-14T13:54:05.858Z,14.80
2017-11-14T13:56:33.306Z,13.53
2017-11-14T13:59:01.527Z,16.53
2017-11-14T14:01:28.970Z,17.40
2017-11-14T14:03:56.422Z,17.23
2017-11-14T14:06:23.902Z,16.80
2017-11-14T14:08:51.359Z,16.30
2017-11-14T14:11:18.816Z,17.47
2017-11-14T14:13:46.269Z,17.20
2017-11-14T14:16:13.711Z,18.73
2017-11-14T14:18:41.187Z,15.70
2017-11-14T14:21:08.633Z,16.83
2017-11-14T14:23:36.067Z,15.27
2017-11-14T14:26:03.547Z,15.93
2017-11-14T14:28:30.994Z,15.20
2017-11-14T14:30:58.457Z,18.60
2017-11-14T14:33:25.899Z,17.90
2017-11-14T14:35:53.368Z,15.80
2017-11-14T14:38:20.812Z,19.60
2017-11-14T14:40:48.265Z,18.10
2017-11-14T14:43:15.737Z,17.60
2017-11-14T14:45:43.194Z,19.90
2017-11-14T14:48:10.659Z,19.70
2017-11-14T14:50:38.107Z,19.90
2017-11-14T14:53:05.665Z,21.80
2017-11-14T14:55:33.239Z,19.83
2017-11-14T14:58:01.442Z,18.67
2017-11-14T15:00:28.894Z,19.93
2017-11-14T15:02:56.339Z,18.63
2017-11-14T15:05:24.565Z,22.30
2017-11-14T15:07:52.061Z,20.47
2017-11-14T15:10:20.288Z,20.63
2017-11-14T15:12:47.734Z,24.40
2017-11-14T15:15:15.182Z,23.87
2017-11-14T15:17:42.630Z,20.80
2017-11-14T15:20:10.078Z,24.20
2017-11-14T15:22:37.544Z,23.53
2017-11-14T15:25:05.051Z,22.57
2017-11-14T15:27:32.566Z,27.13
2017-11-14T15:30:00.002Z,23.00
2017-11-14T15:32:27.581Z,22.93
2017-11-14T15:34:55.019Z,23.50
2017-11-14T15:37:22.594Z,28.07
2017-11-14T15:39:50.038Z,23.77
2017-11-14T15:42:17.503Z,27.03
2017-11-14T15:44:44.960Z,35.03
2017-11-14T15:47:12.411Z,31.43
2017-11-14T15:49:39.902Z,34.93
2017-11-14T15:52:07.354Z,30.03
2017-11-14T15:54:34.806Z,28.80
2017-11-14T15:57:02.270Z,27.27
2017-11-14T15:59:29.733Z,28.23
2017-11-14T16:01:57.174Z,30.40
2017-11-14T16:04:24.768Z,34.83
2017-11-14T16:06:53.083Z,31.20
2017-11-14T16:09:20.519Z,34.70
2017-11-14T16:11:48.024Z,31.73
2017-11-14T16:14:15.486Z,36.57
2017-11-14T16:16:43.060Z,45.20
2017-11-14T16:19:10.516Z,38.40
2017-11-14T16:21:37.963Z,40.37
2017-11-14T16:24:05.503Z,38.70
2017-11-14T16:26:32.958Z,38.63
2017-11-14T16:29:00.410Z,37.07
2017-11-14T16:31:27.867Z,37.27
2017-11-14T16:33:55.360Z,49.87
2017-11-14T16:36:22.803Z,43.20
2017-11-14T16:38:50.258Z,37.23
2017-11-14T16:41:17.714Z,42.47
2017-11-14T16:43:45.259Z,40.23
2017-11-14T16:46:12.781Z,37.00
2017-11-14T16:48:40.262Z,34.27
2017-11-14T16:51:07.711Z,37.37
2017-11-14T16:53:35.210Z,35.20
2017-11-14T16:56:03.446Z,36.83
2017-11-14T16:58:30.903Z,38.10
2017-11-14T17:00:58.466Z,43.20
2017-11-14T17:03:26.022Z,41.87
2017-11-14T17:05:53.466Z,43.73
2017-11-14T17:08:20.934Z,46.67
2017-11-14T17:10:48.568Z,47.30
2017-11-14T17:13:16.046Z,43.73
2017-11-14T17:15:43.576Z,32.57
2017-11-14T17:18:11.063Z,34.73
2017-11-14T17:20:38.519Z,71.30
2017-11-14T17:23:05.966Z,39.83
2017-11-14T17:25:33.534Z,64.77
2017-11-14T17:28:01.093Z,51.97
2017-11-14T17:30:28.643Z,47.70
2017-11-14T17:32:56.209Z,57.90
2017-11-14T17:35:23.667Z,43.17
2017-11-14T17:37:51.115Z,71.40
2017-11-14T17:40:18.567Z,79.67
2017-11-14T17:42:46.010Z,56.43
2017-11-14T17:45:13.490Z,40.53
2017-11-14T17:47:41.046Z,46.00
2017-11-14T17:50:08.521Z,86.90
2017-11-14T17:52:36.742Z,93.10
2017-11-14T17:55:04.297Z,68.37
2017-11-14T17:57:31.800Z,58.67
2017-11-14T17:59:59.256Z,66.93
2017-11-14T18:02:26.719Z,74.27
2017-11-14T18:04:54.176Z,53.83
2017-11-14T18:07:21.712Z,48.17
2017-11-14T18:09:50.057Z,78.80
2017-11-14T18:12:18.326Z,58.53
2017-11-14T18:14:45.782Z,63.57
2017-11-14T18:17:13.290Z,58.90
2017-11-14T18:19:40.732Z,52.20
2017-11-14T18:22:08.187Z,56.10
2017-11-14T18:24:35.656Z,51.27
2017-11-14T18:27:03.168Z,50.07
2017-11-14T18:29:30.641Z,51.27
2017-11-14T18:31:58.116Z,48.83
2017-11-14T18:34:26.645Z,46.47
2017-11-14T18:36:54.152Z,45.47
2017-11-14T18:39:21.699Z,52.33
2017-11-14T18:41:49.159Z,53.70
2017-11-14T18:44:16.619Z,46.60
2017-11-14T18:46:44.174Z,42.67
2017-11-14T18:49:11.618Z,44.37
2017-11-14T18:51:39.079Z,44.03
2017-11-14T18:54:06.659Z,46.30
2017-11-14T18:56:34.111Z,36.97
2017-11-14T18:59:01.563Z,42.67
2017-11-14T19:01:29.110Z,43.63
2017-11-14T19:03:56.576Z,38.00
2017-11-14T19:06:24.027Z,37.10
2017-11-14T19:08:51.517Z,43.27
2017-11-14T19:11:19.722Z,42.10
2017-11-14T19:13:47.238Z,41.63
2017-11-14T19:16:15.460Z,44.47
2017-11-14T19:18:42.970Z,39.73
2017-11-14T19:21:10.571Z,41.73
2017-11-14T19:23:38.120Z,43.73
2017-11-14T19:26:05.610Z,39.87
2017-11-14T19:28:33.166Z,42.30
2017-11-14T19:31:00.670Z,35.13
2017-11-14T19:33:28.182Z,37.40
2017-11-14T19:35:55.737Z,40.03
2017-11-14T19:38:23.211Z,41.77
2017-11-14T19:40:50.750Z,40.97
2017-11-14T19:43:18.212Z,44.23
2017-11-14T19:45:45.694Z,43.67
2017-11-14T19:48:13.947Z,44.00
2017-11-14T19:50:41.404Z,46.27
2017-11-14T19:53:08.854Z,51.23
2017-11-14T19:55:36.410Z,45.87
2017-11-14T19:58:03.915Z,49.03
2017-11-14T20:00:31.362Z,44.57
2017-11-14T20:02:58.826Z,38.20
2017-11-14T20:05:26.289Z,40.30
2017-11-14T20:07:53.735Z,43.47
2017-11-14T20:10:21.182Z,40.97
2017-11-14T20:12:48.634Z,45.70
2017-11-14T20:15:17.857Z,44.03
2017-11-14T20:17:45.295Z,40.00
2017-11-14T20:20:12.746Z,37.87
2017-11-14T20:22:40.198Z,40.60
2017-11-14T20:25:08.446Z,37.57
2017-11-14T20:27:35.883Z,35.57
2017-11-14T20:30:03.341Z,39.10
2017-11-14T20:32:30.790Z,44.03
2017-11-14T20:34:58.246Z,38.80
2017-11-14T20:37:25.714Z,41.43
2017-11-14T20:39:53.159Z,44.90
2017-11-14T20:42:20.770Z,38.93
2017-11-14T20:44:48.218Z,35.33
2017-11-14T20:47:15.725Z,40.80
2017-11-14T20:49:43.223Z,40.93
2017-11-14T20:52:11.434Z,36.50
2017-11-14T20:54:38.884Z,34.33
2017-11-14T20:57:06.357Z,36.53
2017-11-14T20:59:33.821Z,40.47
2017-11-14T21:02:01.291Z,39.03
2017-11-14T21:04:28.751Z,38.00
2017-11-14T21:06:56.276Z,36.33
2017-11-14T21:09:23.792Z,42.43
2017-11-14T21:11:52.059Z,38.30
2017-11-14T21:14:21.031Z,35.07
2017-11-14T21:16:48.613Z,33.97
2017-11-14T21:19:16.845Z,37.40
2017-11-14T21:21:44.308Z,37.63
2017-11-14T21:24:11.771Z,36.00
2017-11-14T21:26:39.277Z,34.60
2017-11-14T21:29:06.774Z,44.07
2017-11-14T21:31:34.333Z,32.40
2017-11-14T21:34:02.579Z,35.47
2017-11-14T21:36:30.062Z,35.90
2017-11-14T21:38:57.514Z,40.03
2017-11-14T21:41:24.985Z,43.20
2017-11-14T21:43:52.451Z,35.60
2017-11-14T21:46:19.914Z,33.27
2017-11-14T21:48:48.182Z,31.90
2017-11-14T21:51:15.642Z,38.30
2017-11-14T21:53:43.908Z,37.40
2017-11-14T21:56:11.351Z,37.77
2017-11-14T21:58:40.159Z,42.67
2017-11-14T22:01:08.818Z,33.77
2017-11-14T22:03:36.374Z,35.50
2017-11-14T22:06:03.866Z,32.63
2017-11-14T22:08:31.379Z,33.63
2017-11-14T22:10:58.817Z,37.33
2017-11-14T22:13:26.305Z,38.87
2017-11-14T22:15:53.746Z,35.67
2017-11-14T22:18:21.211Z,37.53
2017-11-14T22:20:48.757Z,40.07
2017-11-14T22:23:16.209Z,33.30
2017-11-14T22:25:43.659Z,36.80
2017-11-14T22:28:11.230Z,38.73
2017-11-14T22:30:38.786Z,37.17
2017-11-14T22:33:06.242Z,33.83
2017-11-14T22:35:34.012Z,40.03
2017-11-14T22:38:01.506Z,34.87
2017-11-14T22:40:29.023Z,34.57
2017-11-14T22:42:56.747Z,36.73
2017-11-14T22:45:35.211Z,37.63
2017-11-14T22:48:02.868Z,35.83
2017-11-14T22:50:30.378Z,41.67
2017-11-14T22:52:57.866Z,39.40
2017-11-14T22:55:25.326Z,39.67
2017-11-14T22:57:52.778Z,41.20
2017-11-14T23:00:26.178Z,41.60
2017-11-14T23:02:53.666Z,37.10
2017-11-14T23:05:21.874Z,37.70
2017-11-14T23:07:49.392Z,35.77
2017-11-14T23:10:16.878Z,39.20
2017-11-14T23:12:45.110Z,42.83
2017-11-14T23:15:12.697Z,45.67
2017-11-14T23:17:40.210Z,42.10
2017-11-14T23:20:07.665Z,39.07
2017-11-14T23:22:35.121Z,43.37
2017-11-14T23:25:02.624Z,42.53
2017-11-14T23:27:31.411Z,39.40
2017-11-14T23:29:58.922Z,42.90
2017-11-14T23:32:26.378Z,42.53
2017-11-14T23:34:53.839Z,42.63
2017-11-14T23:37:21.329Z,45.37
2017-11-14T23:39:49.574Z,43.33
2017-11-14T23:42:17.087Z,40.83
2017-11-14T23:44:44.574Z,42.63
2017-11-14T23:47:12.046Z,43.27
2017-11-14T23:49:39.483Z,40.67
2017-11-14T23:52:06.938Z,41.53
2017-11-14T23:54:34.459Z,40.30
2017-11-14T23:57:01.916Z,46.07
2017-11-14T23:59:29.385Z,43.23
